createdAt,value
2019-02-25T00:01:00.720Z,21.10
2019-02-25T00:03:47.974Z,18.57
2019-02-25T00:06:38.533Z,17.27
2019-02-25T00:09:26.261Z,19.43
2019-02-25T00:15:20.965Z,17.90
2019-02-25T00:18:08.128Z,19.43
2019-02-25T00:20:55.616Z,20.03
2019-02-25T00:23:43.779Z,19.57
2019-02-25T00:26:31.490Z,21.90
2019-02-25T00:29:18.930Z,20.17
2019-02-25T00:32:08.482Z,19.10
2019-02-25T00:34:55.512Z,17.83
2019-02-25T00:37:42.882Z,17.43
2019-02-25T00:40:31.838Z,20.13
2019-02-25T00:43:19.978Z,19.40
2019-02-25T00:46:07.374Z,18.03
2019-02-25T00:48:54.631Z,19.83
2019-02-25T00:51:42.684Z,17.13
2019-02-25T00:54:31.131Z,16.57
2019-02-25T00:57:18.381Z,17.37
2019-02-25T01:00:08.261Z,17.30
2019-02-25T01:02:55.273Z,16.43
2019-02-25T01:05:42.542Z,15.87
2019-02-25T01:08:30.282Z,17.80
2019-02-25T01:11:17.723Z,16.73
2019-02-25T01:14:07.433Z,19.75
2019-02-25T01:16:54.980Z,19.10
2019-02-25T01:19:42.218Z,19.23
2019-02-25T01:22:29.288Z,15.73
2019-02-25T01:25:16.407Z,17.40
2019-02-25T01:28:04.059Z,17.70
2019-02-25T01:30:51.275Z,16.63
2019-02-25T01:33:38.681Z,16.17
2019-02-25T01:45:47.067Z,17.27
2019-02-25T01:48:34.497Z,19.03
2019-02-25T01:51:22.313Z,17.13
2019-02-25T01:54:10.034Z,19.03
2019-02-25T01:56:58.239Z,18.57
2019-02-25T01:59:45.355Z,17.40
2019-02-25T02:02:33.747Z,16.90
2019-02-25T02:05:20.974Z,18.40
2019-02-25T02:08:08.577Z,17.40
2019-02-25T02:10:56.234Z,18.20
2019-02-25T02:13:43.611Z,16.33
2019-02-25T02:16:30.676Z,18.67
2019-02-25T02:19:18.331Z,17.03
2019-02-25T02:22:06.089Z,18.70
2019-02-25T02:24:56.987Z,17.47
2019-02-25T02:27:46.256Z,18.37
2019-02-25T02:30:33.390Z,17.23
2019-02-25T02:33:20.553Z,16.03
2019-02-25T02:36:08.088Z,15.43
2019-02-25T02:38:55.500Z,14.83
2019-02-25T02:42:10.259Z,19.27
2019-02-25T02:44:57.320Z,19.07
2019-02-25T02:47:47.919Z,18.27
2019-02-25T02:50:35.286Z,19.03
2019-02-25T02:53:25.869Z,16.87
2019-02-25T02:56:13.182Z,22.23
2019-02-25T03:05:13.338Z,20.07
2019-02-25T03:08:00.541Z,20.13
2019-02-25T03:10:47.486Z,18.07
2019-02-25T03:13:35.704Z,16.40
2019-02-25T03:16:22.907Z,20.80
2019-02-25T03:22:16.393Z,20.17
2019-02-25T03:25:04.323Z,19.27
2019-02-25T03:27:52.556Z,18.60
2019-02-25T03:30:40.405Z,18.62
2019-02-25T03:33:27.838Z,23.40
2019-02-25T03:36:15.851Z,16.93
2019-02-25T03:39:03.111Z,18.43
2019-02-25T03:41:50.391Z,16.60
2019-02-25T03:47:44.097Z,18.47
2019-02-25T03:50:39.109Z,17.60
2019-02-25T03:53:26.817Z,16.77
2019-02-25T03:59:20.283Z,19.15
2019-02-25T04:02:07.927Z,17.63
2019-02-25T04:04:54.846Z,18.87
2019-02-25T04:07:42.663Z,17.23
2019-02-25T04:10:30.092Z,17.57
2019-02-25T04:13:20.200Z,18.43
2019-02-25T04:16:07.573Z,15.17
2019-02-25T04:18:54.926Z,15.97
2019-02-25T04:21:42.425Z,17.47
2019-02-25T04:24:29.473Z,17.07
2019-02-25T04:27:17.112Z,17.70
2019-02-25T04:30:07.795Z,18.00
2019-02-25T04:36:01.752Z,18.53
2019-02-25T04:38:49.706Z,17.40
2019-02-25T04:41:36.628Z,15.87
2019-02-25T04:47:31.324Z,18.07
2019-02-25T04:50:18.852Z,17.47
2019-02-25T04:53:06.173Z,14.93
2019-02-25T04:55:53.594Z,18.87
2019-02-25T04:58:40.854Z,17.03
2019-02-25T05:01:27.893Z,15.63
2019-02-25T05:07:21.332Z,17.10
2019-02-25T05:10:08.716Z,15.23
2019-02-25T05:12:56.075Z,15.90
2019-02-25T05:15:43.396Z,17.20
2019-02-25T05:18:30.623Z,16.60
2019-02-25T05:21:17.637Z,18.53
2019-02-25T05:24:04.906Z,18.60
2019-02-25T05:26:51.832Z,18.93
2019-02-25T05:29:39.497Z,17.13
2019-02-25T05:32:40.942Z,18.60
2019-02-25T05:41:41.618Z,15.83
2019-02-25T05:50:41.483Z,15.17
2019-02-25T05:53:28.482Z,18.03
2019-02-25T05:56:16.004Z,15.93
2019-02-25T06:05:30.673Z,17.57
2019-02-25T06:08:17.815Z,15.30
2019-02-25T06:11:12.743Z,16.50
2019-02-25T06:17:06.721Z,16.13
2019-02-25T06:19:54.039Z,18.07
2019-02-25T06:22:41.372Z,18.03
2019-02-25T06:25:28.982Z,19.57
2019-02-25T06:28:17.131Z,20.07
2019-02-25T06:31:04.622Z,18.10
2019-02-25T06:33:52.138Z,16.23
2019-02-25T06:36:39.246Z,20.87
2019-02-25T06:39:26.085Z,18.03
2019-02-25T06:45:19.846Z,18.73
2019-02-25T06:48:06.912Z,16.23
2019-02-25T06:51:08.459Z,17.57
2019-02-25T06:53:55.628Z,17.20
2019-02-25T06:56:42.965Z,18.77
2019-02-25T06:59:44.905Z,19.50
2019-02-25T07:02:32.154Z,20.73
2019-02-25T07:05:28.361Z,22.07
2019-02-25T07:08:15.619Z,18.57
2019-02-25T07:11:09.408Z,19.93
2019-02-25T07:13:56.957Z,17.23
2019-02-25T07:20:16.116Z,15.97
2019-02-25T07:23:06.255Z,19.50
2019-02-25T07:26:11.613Z,24.20
2019-02-25T07:29:00.772Z,19.57
2019-02-25T07:32:06.821Z,16.47
2019-02-25T07:34:54.013Z,16.23
2019-02-25T07:37:47.272Z,19.17
2019-02-25T07:40:37.514Z,18.70
2019-02-25T07:43:33.991Z,17.23
2019-02-25T07:46:23.971Z,17.77
2019-02-25T07:58:53.500Z,22.07
2019-02-25T08:01:40.713Z,17.30
2019-02-25T08:04:30.828Z,16.90
2019-02-25T08:10:57.948Z,17.03
2019-02-25T08:13:45.182Z,16.40
2019-02-25T08:16:32.195Z,17.47
2019-02-25T08:25:38.103Z,22.93
2019-02-25T08:34:55.897Z,18.77
2019-02-25T08:38:02.102Z,19.27
2019-02-25T08:40:54.698Z,22.87
2019-02-25T08:53:23.445Z,15.57
2019-02-25T08:59:18.372Z,16.47
2019-02-25T09:05:12.283Z,18.43
2019-02-25T09:08:00.728Z,17.42
2019-02-25T09:10:48.169Z,20.37
2019-02-25T09:13:35.787Z,17.50
2019-02-25T09:19:36.577Z,22.53
2019-02-25T09:22:25.273Z,19.35
2019-02-25T09:25:12.413Z,17.03
2019-02-25T09:28:00.142Z,14.03
2019-02-25T09:33:54.837Z,16.57
2019-02-25T09:39:52.007Z,18.13
2019-02-25T09:45:45.196Z,13.80
2019-02-25T09:48:32.525Z,13.37
2019-02-25T09:51:20.013Z,14.50
2019-02-25T10:00:20.253Z,14.93
2019-02-25T10:03:07.246Z,16.67
2019-02-25T10:05:56.203Z,15.68
2019-02-25T10:08:46.508Z,17.80
2019-02-25T10:14:40.120Z,14.80
2019-02-25T10:17:27.597Z,13.00
2019-02-25T10:20:15.349Z,12.40
2019-02-25T10:23:02.751Z,13.98
2019-02-25T10:32:16.655Z,14.68
2019-02-25T10:35:04.049Z,12.25
2019-02-25T10:37:51.326Z,10.98
2019-02-25T10:40:38.887Z,13.70
2019-02-25T10:43:27.661Z,15.55
2019-02-25T10:46:15.456Z,12.83
2019-02-25T10:49:11.649Z,8.05
2019-02-25T10:51:56.361Z,10.77
2019-02-25T10:54:45.626Z,11.23
2019-02-25T11:00:39.991Z,12.32
2019-02-25T11:03:40.890Z,12.68
2019-02-25T11:06:37.583Z,16.70
2019-02-25T11:09:39.864Z,11.55
2019-02-25T11:12:27.966Z,10.25
2019-02-25T11:15:20.671Z,13.45
2019-02-25T11:18:15.134Z,11.70
2019-02-25T11:21:03.561Z,11.50
2019-02-25T11:23:51.702Z,11.77
2019-02-25T11:26:37.373Z,12.35
2019-02-25T11:29:24.389Z,10.20
2019-02-25T11:32:11.739Z,13.07
2019-02-25T11:35:08.523Z,11.12
2019-02-25T11:37:54.710Z,12.18
2019-02-25T11:44:01.327Z,13.88
2019-02-25T11:47:03.333Z,13.65
2019-02-25T11:49:51.012Z,13.05
2019-02-25T11:55:44.702Z,17.25
2019-02-25T11:58:46.352Z,16.37
2019-02-25T12:01:33.285Z,14.02
2019-02-25T12:07:27.148Z,13.45
2019-02-25T12:10:21.879Z,13.27
2019-02-25T12:13:09.569Z,12.23
2019-02-25T12:15:56.991Z,17.50
2019-02-25T12:18:51.972Z,20.05
2019-02-25T12:21:46.073Z,14.20
2019-02-25T12:24:47.904Z,13.25
2019-02-25T12:27:42.785Z,13.43
2019-02-25T12:30:29.737Z,15.07
2019-02-25T12:33:31.831Z,16.33
2019-02-25T12:36:19.706Z,14.57
2019-02-25T12:39:07.252Z,13.52
2019-02-25T12:41:54.965Z,15.75
2019-02-25T12:44:49.031Z,21.05
2019-02-25T12:47:36.256Z,12.73
2019-02-25T12:50:25.110Z,19.42
2019-02-25T12:53:12.560Z,13.25
2019-02-25T12:55:59.650Z,13.70
2019-02-25T12:58:48.102Z,13.75
2019-02-25T13:01:35.405Z,12.48
2019-02-25T13:04:36.968Z,14.63
2019-02-25T13:07:32.066Z,12.60
2019-02-25T13:10:19.491Z,16.85
2019-02-25T13:13:06.419Z,21.92
2019-02-25T13:16:08.441Z,15.95
2019-02-25T13:18:56.615Z,10.32
2019-02-25T13:21:58.075Z,10.18
2019-02-25T13:24:45.059Z,10.30
2019-02-25T13:30:42.540Z,11.45
2019-02-25T13:33:30.352Z,9.00
2019-02-25T13:36:17.685Z,11.73
2019-02-25T13:39:06.924Z,11.70
2019-02-25T13:41:55.068Z,10.35
2019-02-25T13:44:56.611Z,11.90
2019-02-25T13:47:44.212Z,11.15
2019-02-25T13:50:31.464Z,11.23
2019-02-25T13:53:18.879Z,14.80
2019-02-25T13:56:06.121Z,9.73
2019-02-25T14:02:05.920Z,15.20
2019-02-25T14:04:53.442Z,12.93
2019-02-25T14:07:40.766Z,12.15
2019-02-25T14:10:42.335Z,12.05
2019-02-25T14:13:29.656Z,11.65
2019-02-25T14:16:16.888Z,12.40
2019-02-25T14:19:18.636Z,12.80
2019-02-25T14:22:06.142Z,13.15
2019-02-25T14:24:54.400Z,10.18
2019-02-25T14:27:42.026Z,10.32
2019-02-25T14:30:32.719Z,10.85
2019-02-25T14:33:16.975Z,14.68
2019-02-25T14:36:04.517Z,13.40
2019-02-25T14:38:53.645Z,11.02
2019-02-25T14:44:45.983Z,9.95
2019-02-25T14:47:36.931Z,7.32
2019-02-25T14:50:20.451Z,12.02
2019-02-25T14:53:09.159Z,8.95
2019-02-25T14:55:56.081Z,8.70
2019-02-25T14:58:43.077Z,8.00
2019-02-25T15:01:29.910Z,8.98
2019-02-25T15:04:16.736Z,15.02
2019-02-25T15:07:06.318Z,7.35
2019-02-25T15:09:51.382Z,12.15
2019-02-25T15:12:39.938Z,10.68
2019-02-25T15:15:25.881Z,13.30
2019-02-25T15:18:13.259Z,8.45
2019-02-25T15:21:02.510Z,7.90
2019-02-25T15:24:04.092Z,14.05
2019-02-25T15:26:49.669Z,11.88
2019-02-25T15:29:39.215Z,11.50
2019-02-25T15:32:24.440Z,9.90
2019-02-25T15:38:25.159Z,11.48
2019-02-25T15:44:19.016Z,14.10
2019-02-25T15:47:06.620Z,9.13
2019-02-25T15:49:55.619Z,12.50
2019-02-25T15:52:41.781Z,13.38
2019-02-25T15:55:37.501Z,15.07
2019-02-25T15:58:24.843Z,16.92
2019-02-25T16:01:12.139Z,11.73
2019-02-25T16:04:02.230Z,11.00
2019-02-25T16:06:47.778Z,9.63
2019-02-25T16:09:35.076Z,14.70
2019-02-25T16:12:25.122Z,13.97
2019-02-25T16:15:18.371Z,14.82
2019-02-25T16:27:27.323Z,13.38
2019-02-25T16:36:34.936Z,9.73
2019-02-25T16:39:36.436Z,9.50
2019-02-25T16:42:25.967Z,9.70
2019-02-25T16:45:34.599Z,12.30
2019-02-25T16:48:17.283Z,8.88
2019-02-25T16:51:03.230Z,11.18
2019-02-25T16:53:52.262Z,8.60
2019-02-25T16:56:37.577Z,12.85
2019-02-25T16:59:25.054Z,15.35
2019-02-25T17:05:18.359Z,16.17
2019-02-25T17:08:07.921Z,18.00
2019-02-25T17:11:01.087Z,12.60
2019-02-25T17:16:56.956Z,13.20
2019-02-25T17:19:43.957Z,13.13
2019-02-25T17:22:31.337Z,16.23
2019-02-25T17:25:18.586Z,16.07
2019-02-25T17:28:08.186Z,17.80
2019-02-25T17:30:53.453Z,12.90
2019-02-25T17:33:57.909Z,15.47
2019-02-25T17:36:44.848Z,15.97
2019-02-25T17:39:32.877Z,9.35
2019-02-25T17:42:17.967Z,12.90
2019-02-25T17:45:07.549Z,12.20
2019-02-25T17:47:58.178Z,12.25
2019-02-25T17:50:55.163Z,10.73
2019-02-25T17:53:41.362Z,9.00
2019-02-25T17:56:36.021Z,10.47
2019-02-25T17:59:25.035Z,12.93
2019-02-25T18:05:19.074Z,11.47
2019-02-25T18:08:08.047Z,11.90
2019-02-25T18:10:54.141Z,13.57
2019-02-25T18:19:54.580Z,8.20
2019-02-25T18:22:50.847Z,8.50
2019-02-25T18:25:37.652Z,9.40
2019-02-25T18:28:30.124Z,11.97
2019-02-25T18:43:45.108Z,12.97
2019-02-25T18:46:31.453Z,9.50
2019-02-25T18:49:18.994Z,10.37
2019-02-25T18:52:08.574Z,10.70
2019-02-25T18:54:55.649Z,13.20
2019-02-25T18:57:43.795Z,12.25
2019-02-25T19:06:47.875Z,11.63
2019-02-25T19:12:43.895Z,11.97
2019-02-25T19:18:36.676Z,11.50
2019-02-25T19:21:23.314Z,12.03
2019-02-25T19:24:09.946Z,13.30
2019-02-25T19:26:56.748Z,11.40
2019-02-25T19:29:45.558Z,10.67
2019-02-25T19:32:32.143Z,10.73
2019-02-25T19:35:21.900Z,10.17
2019-02-25T19:38:10.091Z,12.13
2019-02-25T19:40:55.957Z,11.67
2019-02-25T19:43:42.461Z,12.83
2019-02-25T19:46:30.482Z,13.60
2019-02-25T19:52:34.716Z,10.90
2019-02-25T19:55:20.566Z,12.75
2019-02-25T19:58:05.674Z,13.10
2019-02-25T20:00:56.197Z,11.30
2019-02-25T20:03:42.478Z,10.57
2019-02-25T20:06:28.038Z,13.23
2019-02-25T20:09:14.808Z,12.07
2019-02-25T20:12:02.015Z,11.43
2019-02-25T20:14:49.469Z,11.93
2019-02-25T20:17:38.325Z,12.57
2019-02-25T20:23:31.693Z,12.87
2019-02-25T20:26:20.051Z,11.23
2019-02-25T20:29:08.579Z,12.40
2019-02-25T20:31:56.628Z,12.87
2019-02-25T20:34:46.081Z,13.77
2019-02-25T20:37:31.406Z,14.10
2019-02-25T20:40:21.408Z,15.90
2019-02-25T20:43:04.908Z,11.50
2019-02-25T20:45:54.192Z,16.60
2019-02-25T20:51:48.346Z,14.73
2019-02-25T20:57:41.226Z,16.87
2019-02-25T21:00:29.127Z,13.23
2019-02-25T21:03:18.415Z,15.47
2019-02-25T21:06:03.811Z,17.47
2019-02-25T21:08:52.733Z,15.87
2019-02-25T21:11:40.669Z,13.23
2019-02-25T21:14:31.421Z,17.27
2019-02-25T21:17:16.376Z,15.53
2019-02-25T21:20:04.817Z,16.80
2019-02-25T21:22:52.927Z,15.53
2019-02-25T21:25:39.032Z,15.67
2019-02-25T21:28:29.080Z,17.13
2019-02-25T21:31:16.602Z,12.93
2019-02-25T21:34:02.123Z,17.70
2019-02-25T21:39:56.643Z,13.83
2019-02-25T21:42:44.362Z,12.50
2019-02-25T21:45:32.857Z,17.13
2019-02-25T21:48:23.074Z,14.23
2019-02-25T21:54:16.617Z,17.30
2019-02-25T21:57:05.389Z,14.63
2019-02-25T21:59:54.168Z,16.70
2019-02-25T22:02:41.467Z,16.10
2019-02-25T22:05:26.339Z,14.23
2019-02-25T22:08:20.107Z,16.57
2019-02-25T22:11:12.220Z,12.90
2019-02-25T22:14:06.435Z,16.55
2019-02-25T22:16:54.366Z,16.43
2019-02-25T22:19:41.903Z,15.97
2019-02-25T22:22:33.143Z,18.20
2019-02-25T22:37:49.197Z,23.75
2019-02-25T22:40:32.725Z,17.57
2019-02-25T22:43:22.779Z,15.70
2019-02-25T22:46:11.640Z,17.40
2019-02-25T22:49:02.855Z,15.47
2019-02-25T22:51:51.702Z,17.83
2019-02-25T22:54:39.156Z,16.90
2019-02-25T22:57:25.704Z,19.65
2019-02-25T23:00:13.040Z,17.92
2019-02-25T23:03:01.599Z,19.17
2019-02-25T23:06:03.544Z,18.73
2019-02-25T23:08:58.630Z,14.70
2019-02-25T23:12:00.049Z,16.20
2019-02-25T23:14:48.300Z,16.37
2019-02-25T23:17:37.523Z,14.87
2019-02-25T23:20:40.232Z,21.20
2019-02-25T23:23:30.579Z,17.03
2019-02-25T23:26:19.911Z,16.10
2019-02-25T23:32:12.544Z,16.07
2019-02-25T23:35:00.908Z,19.15
2019-02-25T23:37:49.597Z,16.55
2019-02-25T23:43:44.544Z,17.13
2019-02-25T23:55:54.302Z,16.80
2019-02-25T23:58:42.317Z,22.02
